sensor_id;sensor_type;location;lat;lon;timestamp;P1;durP1;ratioP1;P2;durP2;ratioP2
35530;SDS011;21637;53.352;-6.356;2023-07-20T00:01:22;5.95;;;3.20;;
35530;SDS011;21637;53.352;-6.356;2023-07-20T00:03:48;6.95;;;3.10;;
35530;SDS011;21637;53.352;-6.356;2023-07-20T00:06:19;4.80;;;3.10;;
35530;SDS011;21637;53.352;-6.356;2023-07-20T00:08:50;4.20;;;2.95;;
35530;SDS011;21637;53.352;-6.356;2023-07-20T00:11:16;4.72;;;3.55;;
35530;SDS011;21637;53.352;-6.356;2023-07-20T00:13:42;5.22;;;3.17;;
35530;SDS011;21637;53.352;-6.356;2023-07-20T00:16:08;4.78;;;3.15;;
35530;SDS011;21637;53.352;-6.356;2023-07-20T00:18:34;3.72;;;3.20;;
35530;SDS011;21637;53.352;-6.356;2023-07-20T00:21:00;4.10;;;3.40;;
35530;SDS011;21637;53.352;-6.356;2023-07-20T00:23:26;3.78;;;3.22;;
35530;SDS011;21637;53.352;-6.356;2023-07-20T00:25:52;4.20;;;3.22;;
35530;SDS011;21637;53.352;-6.356;2023-07-20T00:28:18;4.97;;;3.45;;
35530;SDS011;21637;53.352;-6.356;2023-07-20T00:30:44;4.07;;;3.15;;
35530;SDS011;21637;53.352;-6.356;2023-07-20T00:33:10;8.43;;;3.20;;
35530;SDS011;21637;53.352;-6.356;2023-07-20T00:35:37;6.22;;;3.20;;
35530;SDS011;21637;53.352;-6.356;2023-07-20T00:38:03;3.95;;;3.17;;
35530;SDS011;21637;53.352;-6.356;2023-07-20T00:40:35;4.05;;;3.40;;
35530;SDS011;21637;53.352;-6.356;2023-07-20T00:43:02;5.45;;;3.47;;
35530;SDS011;21637;53.352;-6.356;2023-07-20T00:45:28;6.10;;;3.10;;
35530;SDS011;21637;53.352;-6.356;2023-07-20T00:47:54;5.25;;;3.58;;
35530;SDS011;21637;53.352;-6.356;2023-07-20T00:50:20;4.72;;;3.08;;
35530;SDS011;21637;53.352;-6.356;2023-07-20T00:52:46;3.80;;;3.33;;
35530;SDS011;21637;53.352;-6.356;2023-07-20T00:55:12;4.50;;;3.28;;
35530;SDS011;21637;53.352;-6.356;2023-07-20T00:57:38;4.75;;;3.10;;
35530;SDS011;21637;53.352;-6.356;2023-07-20T01:00:04;5.45;;;3.70;;
35530;SDS011;21637;53.352;-6.356;2023-07-20T01:02:31;7.90;;;3.88;;
35530;SDS011;21637;53.352;-6.356;2023-07-20T01:04:57;3.63;;;3.30;;
35530;SDS011;21637;53.352;-6.356;2023-07-20T01:10:20;6.03;;;3.58;;
35530;SDS011;21637;53.352;-6.356;2023-07-20T01:12:58;5.68;;;3.35;;
35530;SDS011;21637;53.352;-6.356;2023-07-20T01:15:25;5.50;;;3.30;;
35530;SDS011;21637;53.352;-6.356;2023-07-20T01:17:51;6.20;;;3.60;;
35530;SDS011;21637;53.352;-6.356;2023-07-20T01:20:18;5.07;;;4.00;;
35530;SDS011;21637;53.352;-6.356;2023-07-20T01:23:06;8.55;;;3.90;;
35530;SDS011;21637;53.352;-6.356;2023-07-20T01:31:49;7.88;;;3.80;;
35530;SDS011;21637;53.352;-6.356;2023-07-20T01:34:18;4.90;;;3.50;;
35530;SDS011;21637;53.352;-6.356;2023-07-20T01:36:47;7.45;;;3.58;;
35530;SDS011;21637;53.352;-6.356;2023-07-20T01:39:15;6.00;;;3.58;;
35530;SDS011;21637;53.352;-6.356;2023-07-20T01:41:42;5.22;;;4.15;;
35530;SDS011;21637;53.352;-6.356;2023-07-20T01:44:08;5.85;;;4.20;;
35530;SDS011;21637;53.352;-6.356;2023-07-20T01:46:33;4.93;;;3.42;;
35530;SDS011;21637;53.352;-6.356;2023-07-20T01:48:59;4.93;;;3.63;;
35530;SDS011;21637;53.352;-6.356;2023-07-20T01:51:25;3.25;;;2.95;;
35530;SDS011;21637;53.352;-6.356;2023-07-20T01:53:50;6.45;;;3.50;;
35530;SDS011;21637;53.352;-6.356;2023-07-20T01:56:16;5.28;;;4.22;;
35530;SDS011;21637;53.352;-6.356;2023-07-20T01:58:42;4.22;;;3.75;;
35530;SDS011;21637;53.352;-6.356;2023-07-20T02:01:08;5.38;;;3.42;;
35530;SDS011;21637;53.352;-6.356;2023-07-20T02:03:33;5.03;;;3.80;;
35530;SDS011;21637;53.352;-6.356;2023-07-20T02:05:59;5.10;;;3.05;;
35530;SDS011;21637;53.352;-6.356;2023-07-20T02:08:25;5.50;;;3.60;;
35530;SDS011;21637;53.352;-6.356;2023-07-20T02:10:51;8.23;;;3.53;;
35530;SDS011;21637;53.352;-6.356;2023-07-20T02:13:17;6.07;;;3.97;;
35530;SDS011;21637;53.352;-6.356;2023-07-20T02:15:42;4.40;;;3.55;;
35530;SDS011;21637;53.352;-6.356;2023-07-20T02:18:08;7.43;;;3.92;;
35530;SDS011;21637;53.352;-6.356;2023-07-20T02:20:34;9.57;;;4.40;;
35530;SDS011;21637;53.352;-6.356;2023-07-20T02:23:00;7.07;;;3.72;;
35530;SDS011;21637;53.352;-6.356;2023-07-20T02:25:26;4.82;;;3.92;;
35530;SDS011;21637;53.352;-6.356;2023-07-20T02:27:52;6.35;;;3.85;;
35530;SDS011;21637;53.352;-6.356;2023-07-20T02:30:18;7.82;;;4.05;;
35530;SDS011;21637;53.352;-6.356;2023-07-20T02:32:43;6.82;;;4.32;;
35530;SDS011;21637;53.352;-6.356;2023-07-20T02:35:10;7.15;;;4.47;;
35530;SDS011;21637;53.352;-6.356;2023-07-20T02:37:37;7.40;;;4.40;;
35530;SDS011;21637;53.352;-6.356;2023-07-20T02:40:02;6.35;;;4.18;;
35530;SDS011;21637;53.352;-6.356;2023-07-20T02:42:29;6.20;;;3.75;;
35530;SDS011;21637;53.352;-6.356;2023-07-20T02:44:55;6.15;;;4.15;;
35530;SDS011;21637;53.352;-6.356;2023-07-20T02:47:21;5.95;;;4.43;;
35530;SDS011;21637;53.352;-6.356;2023-07-20T02:49:47;6.93;;;4.20;;
35530;SDS011;21637;53.352;-6.356;2023-07-20T02:52:12;8.07;;;4.25;;
35530;SDS011;21637;53.352;-6.356;2023-07-20T02:54:38;9.52;;;5.03;;
35530;SDS011;21637;53.352;-6.356;2023-07-20T02:57:04;7.72;;;4.60;;
35530;SDS011;21637;53.352;-6.356;2023-07-20T02:59:30;8.60;;;4.45;;
35530;SDS011;21637;53.352;-6.356;2023-07-20T03:01:55;6.68;;;4.43;;
35530;SDS011;21637;53.352;-6.356;2023-07-20T03:04:22;6.38;;;4.63;;
35530;SDS011;21637;53.352;-6.356;2023-07-20T03:06:50;8.23;;;4.60;;
35530;SDS011;21637;53.352;-6.356;2023-07-20T03:09:16;5.55;;;4.35;;
35530;SDS011;21637;53.352;-6.356;2023-07-20T03:11:42;5.25;;;4.00;;
35530;SDS011;21637;53.352;-6.356;2023-07-20T03:14:07;8.27;;;4.68;;
35530;SDS011;21637;53.352;-6.356;2023-07-20T03:16:33;7.35;;;4.43;;
35530;SDS011;21637;53.352;-6.356;2023-07-20T03:18:59;6.95;;;4.22;;
35530;SDS011;21637;53.352;-6.356;2023-07-20T03:21:28;6.68;;;4.10;;
35530;SDS011;21637;53.352;-6.356;2023-07-20T03:23:54;10.60;;;5.00;;
35530;SDS011;21637;53.352;-6.356;2023-07-20T03:26:20;6.18;;;4.28;;
35530;SDS011;21637;53.352;-6.356;2023-07-20T03:28:46;5.38;;;4.28;;
35530;SDS011;21637;53.352;-6.356;2023-07-20T03:31:12;5.70;;;3.90;;
35530;SDS011;21637;53.352;-6.356;2023-07-20T03:33:39;5.35;;;4.45;;
35530;SDS011;21637;53.352;-6.356;2023-07-20T03:36:05;10.77;;;4.93;;
35530;SDS011;21637;53.352;-6.356;2023-07-20T03:38:31;6.00;;;4.38;;
35530;SDS011;21637;53.352;-6.356;2023-07-20T03:40:58;7.60;;;4.75;;
35530;SDS011;21637;53.352;-6.356;2023-07-20T03:43:25;10.30;;;5.45;;
35530;SDS011;21637;53.352;-6.356;2023-07-20T03:45:52;5.65;;;4.97;;
35530;SDS011;21637;53.352;-6.356;2023-07-20T03:48:19;8.88;;;4.90;;
35530;SDS011;21637;53.352;-6.356;2023-07-20T03:50:49;8.95;;;5.28;;
35530;SDS011;21637;53.352;-6.356;2023-07-20T03:53:16;11.60;;;4.82;;
35530;SDS011;21637;53.352;-6.356;2023-07-20T03:55:45;5.82;;;4.93;;
35530;SDS011;21637;53.352;-6.356;2023-07-20T03:58:12;10.07;;;6.03;;
35530;SDS011;21637;53.352;-6.356;2023-07-20T04:00:39;9.18;;;5.10;;
35530;SDS011;21637;53.352;-6.356;2023-07-20T04:03:05;7.47;;;4.93;;
35530;SDS011;21637;53.352;-6.356;2023-07-20T04:05:31;8.65;;;5.40;;
35530;SDS011;21637;53.352;-6.356;2023-07-20T04:07:57;9.40;;;4.90;;
35530;SDS011;21637;53.352;-6.356;2023-07-20T04:10:23;7.50;;;5.05;;
35530;SDS011;21637;53.352;-6.356;2023-07-20T04:12:48;8.00;;;5.25;;
35530;SDS011;21637;53.352;-6.356;2023-07-20T04:15:14;8.70;;;5.28;;
35530;SDS011;21637;53.352;-6.356;2023-07-20T04:17:40;9.77;;;5.30;;
35530;SDS011;21637;53.352;-6.356;2023-07-20T04:20:06;4.88;;;4.43;;
35530;SDS011;21637;53.352;-6.356;2023-07-20T04:22:33;8.18;;;5.25;;
35530;SDS011;21637;53.352;-6.356;2023-07-20T04:24:59;7.60;;;5.22;;
35530;SDS011;21637;53.352;-6.356;2023-07-20T04:27:25;7.45;;;5.35;;
35530;SDS011;21637;53.352;-6.356;2023-07-20T04:29:51;7.95;;;5.15;;
35530;SDS011;21637;53.352;-6.356;2023-07-20T04:32:17;7.35;;;5.18;;
35530;SDS011;21637;53.352;-6.356;2023-07-20T04:34:43;7.35;;;5.55;;
35530;SDS011;21637;53.352;-6.356;2023-07-20T04:37:09;7.75;;;5.32;;
35530;SDS011;21637;53.352;-6.356;2023-07-20T04:39:34;10.40;;;6.32;;
35530;SDS011;21637;53.352;-6.356;2023-07-20T04:42:00;11.00;;;5.97;;
35530;SDS011;21637;53.352;-6.356;2023-07-20T04:44:26;11.15;;;6.43;;
35530;SDS011;21637;53.352;-6.356;2023-07-20T04:46:51;6.40;;;5.30;;
35530;SDS011;21637;53.352;-6.356;2023-07-20T04:49:17;8.25;;;5.53;;
35530;SDS011;21637;53.352;-6.356;2023-07-20T04:51:43;9.05;;;6.57;;
35530;SDS011;21637;53.352;-6.356;2023-07-20T04:54:08;11.75;;;6.35;;
35530;SDS011;21637;53.352;-6.356;2023-07-20T04:56:34;10.40;;;6.50;;
35530;SDS011;21637;53.352;-6.356;2023-07-20T04:59:00;9.60;;;6.28;;
35530;SDS011;21637;53.352;-6.356;2023-07-20T05:01:25;10.85;;;5.55;;
35530;SDS011;21637;53.352;-6.356;2023-07-20T05:03:54;10.02;;;5.97;;
35530;SDS011;21637;53.352;-6.356;2023-07-20T05:06:20;9.50;;;5.88;;
35530;SDS011;21637;53.352;-6.356;2023-07-20T05:08:46;8.27;;;5.28;;
35530;SDS011;21637;53.352;-6.356;2023-07-20T05:11:11;10.63;;;5.85;;
35530;SDS011;21637;53.352;-6.356;2023-07-20T05:13:37;8.75;;;5.95;;
35530;SDS011;21637;53.352;-6.356;2023-07-20T05:16:03;8.63;;;6.18;;
35530;SDS011;21637;53.352;-6.356;2023-07-20T05:18:29;8.50;;;5.88;;
35530;SDS011;21637;53.352;-6.356;2023-07-20T05:20:55;8.07;;;5.65;;
35530;SDS011;21637;53.352;-6.356;2023-07-20T05:23:20;10.65;;;6.10;;
35530;SDS011;21637;53.352;-6.356;2023-07-20T05:25:47;10.00;;;6.38;;
35530;SDS011;21637;53.352;-6.356;2023-07-20T05:28:20;8.07;;;5.93;;
35530;SDS011;21637;53.352;-6.356;2023-07-20T05:30:45;8.13;;;5.90;;
35530;SDS011;21637;53.352;-6.356;2023-07-20T05:33:11;8.60;;;5.95;;
35530;SDS011;21637;53.352;-6.356;2023-07-20T05:35:37;7.63;;;5.53;;
35530;SDS011;21637;53.352;-6.356;2023-07-20T05:38:03;9.68;;;6.28;;
35530;SDS011;21637;53.352;-6.356;2023-07-20T05:40:30;9.88;;;5.90;;
35530;SDS011;21637;53.352;-6.356;2023-07-20T05:42:56;12.90;;;7.00;;
35530;SDS011;21637;53.352;-6.356;2023-07-20T05:45:22;11.15;;;6.65;;
35530;SDS011;21637;53.352;-6.356;2023-07-20T05:47:47;9.77;;;6.65;;
35530;SDS011;21637;53.352;-6.356;2023-07-20T05:50:13;8.98;;;5.30;;
35530;SDS011;21637;53.352;-6.356;2023-07-20T05:52:40;7.57;;;5.50;;
35530;SDS011;21637;53.352;-6.356;2023-07-20T05:55:06;8.82;;;6.00;;
35530;SDS011;21637;53.352;-6.356;2023-07-20T05:57:32;10.93;;;5.95;;
35530;SDS011;21637;53.352;-6.356;2023-07-20T05:59:58;8.85;;;5.57;;
35530;SDS011;21637;53.352;-6.356;2023-07-20T06:02:24;6.90;;;5.85;;
35530;SDS011;21637;53.352;-6.356;2023-07-20T06:04:50;7.15;;;5.28;;
35530;SDS011;21637;53.352;-6.356;2023-07-20T06:07:15;12.55;;;6.20;;
35530;SDS011;21637;53.352;-6.356;2023-07-20T06:09:41;8.38;;;5.95;;
35530;SDS011;21637;53.352;-6.356;2023-07-20T06:12:07;8.30;;;5.20;;
35530;SDS011;21637;53.352;-6.356;2023-07-20T06:14:33;7.50;;;6.25;;
35530;SDS011;21637;53.352;-6.356;2023-07-20T06:16:59;9.00;;;6.05;;
35530;SDS011;21637;53.352;-6.356;2023-07-20T06:19:25;8.90;;;6.38;;
35530;SDS011;21637;53.352;-6.356;2023-07-20T06:21:51;9.23;;;6.10;;
35530;SDS011;21637;53.352;-6.356;2023-07-20T06:24:17;8.68;;;6.35;;
35530;SDS011;21637;53.352;-6.356;2023-07-20T06:26:43;10.52;;;6.38;;
35530;SDS011;21637;53.352;-6.356;2023-07-20T06:29:08;10.88;;;5.90;;
35530;SDS011;21637;53.352;-6.356;2023-07-20T06:31:35;8.93;;;6.15;;
35530;SDS011;21637;53.352;-6.356;2023-07-20T06:34:01;10.57;;;6.38;;
35530;SDS011;21637;53.352;-6.356;2023-07-20T06:36:27;8.93;;;6.13;;
35530;SDS011;21637;53.352;-6.356;2023-07-20T06:38:53;8.60;;;5.90;;
35530;SDS011;21637;53.352;-6.356;2023-07-20T06:41:20;7.05;;;5.63;;
35530;SDS011;21637;53.352;-6.356;2023-07-20T06:43:46;12.82;;;6.10;;
35530;SDS011;21637;53.352;-6.356;2023-07-20T06:46:12;10.68;;;6.15;;
35530;SDS011;21637;53.352;-6.356;2023-07-20T06:48:37;8.15;;;6.15;;
35530;SDS011;21637;53.352;-6.356;2023-07-20T06:51:03;9.68;;;6.40;;
35530;SDS011;21637;53.352;-6.356;2023-07-20T06:53:29;8.20;;;5.60;;
35530;SDS011;21637;53.352;-6.356;2023-07-20T06:55:55;10.15;;;6.70;;
35530;SDS011;21637;53.352;-6.356;2023-07-20T06:58:24;10.30;;;6.95;;
35530;SDS011;21637;53.352;-6.356;2023-07-20T07:00:50;11.63;;;6.88;;
35530;SDS011;21637;53.352;-6.356;2023-07-20T07:03:16;8.90;;;6.18;;
35530;SDS011;21637;53.352;-6.356;2023-07-20T07:05:42;8.95;;;6.35;;
35530;SDS011;21637;53.352;-6.356;2023-07-20T07:08:09;9.30;;;7.00;;
35530;SDS011;21637;53.352;-6.356;2023-07-20T07:10:35;10.30;;;6.50;;
35530;SDS011;21637;53.352;-6.356;2023-07-20T07:13:01;9.02;;;6.30;;
35530;SDS011;21637;53.352;-6.356;2023-07-20T07:15:27;10.32;;;6.60;;
35530;SDS011;21637;53.352;-6.356;2023-07-20T07:17:53;9.40;;;7.28;;
35530;SDS011;21637;53.352;-6.356;2023-07-20T07:20:19;10.15;;;6.28;;
35530;SDS011;21637;53.352;-6.356;2023-07-20T07:22:45;14.32;;;6.55;;
35530;SDS011;21637;53.352;-6.356;2023-07-20T07:25:11;11.05;;;7.15;;
35530;SDS011;21637;53.352;-6.356;2023-07-20T07:27:37;8.15;;;6.28;;
35530;SDS011;21637;53.352;-6.356;2023-07-20T07:30:03;12.15;;;6.82;;
35530;SDS011;21637;53.352;-6.356;2023-07-20T07:32:30;12.20;;;7.25;;
35530;SDS011;21637;53.352;-6.356;2023-07-20T07:34:56;8.88;;;6.35;;
35530;SDS011;21637;53.352;-6.356;2023-07-20T07:37:23;11.93;;;7.47;;
35530;SDS011;21637;53.352;-6.356;2023-07-20T07:39:49;8.60;;;7.07;;
35530;SDS011;21637;53.352;-6.356;2023-07-20T07:42:15;13.45;;;8.32;;
35530;SDS011;21637;53.352;-6.356;2023-07-20T07:44:41;9.88;;;7.32;;
35530;SDS011;21637;53.352;-6.356;2023-07-20T07:47:06;11.82;;;7.45;;
35530;SDS011;21637;53.352;-6.356;2023-07-20T07:49:32;10.63;;;8.05;;
35530;SDS011;21637;53.352;-6.356;2023-07-20T07:51:58;8.77;;;7.45;;
35530;SDS011;21637;53.352;-6.356;2023-07-20T07:54:27;10.82;;;8.77;;
35530;SDS011;21637;53.352;-6.356;2023-07-20T07:56:53;12.05;;;8.10;;
35530;SDS011;21637;53.352;-6.356;2023-07-20T07:59:19;11.63;;;7.72;;
35530;SDS011;21637;53.352;-6.356;2023-07-20T08:01:45;12.40;;;8.98;;
35530;SDS011;21637;53.352;-6.356;2023-07-20T08:04:10;13.77;;;9.15;;
35530;SDS011;21637;53.352;-6.356;2023-07-20T08:06:36;15.07;;;9.57;;
35530;SDS011;21637;53.352;-6.356;2023-07-20T08:09:02;12.65;;;9.85;;
35530;SDS011;21637;53.352;-6.356;2023-07-20T08:11:28;13.30;;;9.73;;
35530;SDS011;21637;53.352;-6.356;2023-07-20T08:13:55;13.77;;;9.95;;
35530;SDS011;21637;53.352;-6.356;2023-07-20T08:16:22;12.93;;;11.15;;
35530;SDS011;21637;53.352;-6.356;2023-07-20T08:18:47;13.30;;;10.45;;
35530;SDS011;21637;53.352;-6.356;2023-07-20T08:21:13;14.27;;;10.45;;
35530;SDS011;21637;53.352;-6.356;2023-07-20T08:23:39;13.63;;;9.82;;
35530;SDS011;21637;53.352;-6.356;2023-07-20T08:26:05;14.90;;;9.95;;
35530;SDS011;21637;53.352;-6.356;2023-07-20T08:28:30;15.07;;;10.20;;
35530;SDS011;21637;53.352;-6.356;2023-07-20T08:30:56;11.65;;;9.38;;
35530;SDS011;21637;53.352;-6.356;2023-07-20T08:33:22;12.95;;;9.52;;
35530;SDS011;21637;53.352;-6.356;2023-07-20T08:35:49;11.30;;;8.85;;
35530;SDS011;21637;53.352;-6.356;2023-07-20T08:38:14;10.20;;;8.60;;
35530;SDS011;21637;53.352;-6.356;2023-07-20T08:40:41;12.10;;;8.65;;
35530;SDS011;21637;53.352;-6.356;2023-07-20T08:43:11;12.32;;;9.05;;
35530;SDS011;21637;53.352;-6.356;2023-07-20T08:45:40;13.88;;;8.93;;
35530;SDS011;21637;53.352;-6.356;2023-07-20T08:48:07;9.63;;;7.90;;
35530;SDS011;21637;53.352;-6.356;2023-07-20T08:50:34;8.82;;;7.90;;
35530;SDS011;21637;53.352;-6.356;2023-07-20T08:53:00;10.15;;;7.45;;
35530;SDS011;21637;53.352;-6.356;2023-07-20T08:55:27;11.02;;;7.85;;
35530;SDS011;21637;53.352;-6.356;2023-07-20T08:57:54;11.48;;;8.20;;
35530;SDS011;21637;53.352;-6.356;2023-07-20T09:00:21;9.48;;;7.75;;
35530;SDS011;21637;53.352;-6.356;2023-07-20T09:02:52;8.02;;;6.88;;
35530;SDS011;21637;53.352;-6.356;2023-07-20T09:05:18;10.07;;;7.65;;
35530;SDS011;21637;53.352;-6.356;2023-07-20T09:07:45;10.32;;;7.80;;
35530;SDS011;21637;53.352;-6.356;2023-07-20T09:10:11;9.50;;;7.80;;
35530;SDS011;21637;53.352;-6.356;2023-07-20T09:12:38;8.38;;;7.13;;
35530;SDS011;21637;53.352;-6.356;2023-07-20T09:15:06;9.68;;;7.10;;
35530;SDS011;21637;53.352;-6.356;2023-07-20T09:17:33;8.65;;;6.72;;
35530;SDS011;21637;53.352;-6.356;2023-07-20T09:19:59;9.13;;;6.50;;
35530;SDS011;21637;53.352;-6.356;2023-07-20T09:22:30;7.95;;;6.63;;
35530;SDS011;21637;53.352;-6.356;2023-07-20T09:24:57;6.63;;;5.75;;
35530;SDS011;21637;53.352;-6.356;2023-07-20T09:27:36;7.53;;;6.28;;
35530;SDS011;21637;53.352;-6.356;2023-07-20T09:30:02;8.52;;;6.28;;
35530;SDS011;21637;53.352;-6.356;2023-07-20T09:32:29;6.88;;;6.05;;
35530;SDS011;21637;53.352;-6.356;2023-07-20T09:34:55;7.30;;;6.53;;
35530;SDS011;21637;53.352;-6.356;2023-07-20T09:37:21;7.15;;;6.07;;
35530;SDS011;21637;53.352;-6.356;2023-07-20T09:39:48;7.55;;;5.97;;
35530;SDS011;21637;53.352;-6.356;2023-07-20T09:42:16;8.10;;;6.43;;
35530;SDS011;21637;53.352;-6.356;2023-07-20T09:44:44;11.02;;;6.95;;
35530;SDS011;21637;53.352;-6.356;2023-07-20T09:47:10;7.68;;;6.80;;
35530;SDS011;21637;53.352;-6.356;2023-07-20T09:49:42;10.60;;;6.72;;
35530;SDS011;21637;53.352;-6.356;2023-07-20T09:52:08;11.13;;;6.67;;
35530;SDS011;21637;53.352;-6.356;2023-07-20T09:54:36;7.20;;;6.50;;
35530;SDS011;21637;53.352;-6.356;2023-07-20T09:57:03;9.27;;;6.72;;
35530;SDS011;21637;53.352;-6.356;2023-07-20T09:59:37;8.18;;;6.70;;
35530;SDS011;21637;53.352;-6.356;2023-07-20T10:02:05;9.38;;;7.00;;
35530;SDS011;21637;53.352;-6.356;2023-07-20T10:04:41;10.98;;;7.10;;
35530;SDS011;21637;53.352;-6.356;2023-07-20T10:07:09;10.07;;;6.50;;
35530;SDS011;21637;53.352;-6.356;2023-07-20T10:09:39;8.63;;;6.25;;
35530;SDS011;21637;53.352;-6.356;2023-07-20T10:12:07;7.78;;;6.68;;
35530;SDS011;21637;53.352;-6.356;2023-07-20T10:14:35;8.13;;;6.75;;
35530;SDS011;21637;53.352;-6.356;2023-07-20T10:17:06;10.38;;;6.88;;
35530;SDS011;21637;53.352;-6.356;2023-07-20T10:19:42;10.15;;;6.80;;
35530;SDS011;21637;53.352;-6.356;2023-07-20T10:22:17;9.55;;;7.95;;
35530;SDS011;21637;53.352;-6.356;2023-07-20T10:24:48;9.90;;;6.97;;
35530;SDS011;21637;53.352;-6.356;2023-07-20T10:27:16;7.60;;;6.55;;
35530;SDS011;21637;53.352;-6.356;2023-07-20T10:29:42;9.75;;;6.57;;
35530;SDS011;21637;53.352;-6.356;2023-07-20T10:32:09;7.95;;;6.47;;
35530;SDS011;21637;53.352;-6.356;2023-07-20T10:34:35;7.57;;;6.55;;
35530;SDS011;21637;53.352;-6.356;2023-07-20T10:37:01;9.93;;;6.95;;
35530;SDS011;21637;53.352;-6.356;2023-07-20T10:39:27;7.85;;;6.75;;
35530;SDS011;21637;53.352;-6.356;2023-07-20T10:42:08;8.13;;;7.20;;
35530;SDS011;21637;53.352;-6.356;2023-07-20T10:44:37;12.23;;;8.35;;
35530;SDS011;21637;53.352;-6.356;2023-07-20T10:47:08;10.75;;;8.82;;
35530;SDS011;21637;53.352;-6.356;2023-07-20T10:49:35;13.65;;;9.23;;
35530;SDS011;21637;53.352;-6.356;2023-07-20T10:52:20;12.20;;;9.63;;
35530;SDS011;21637;53.352;-6.356;2023-07-20T10:54:46;10.95;;;8.65;;
35530;SDS011;21637;53.352;-6.356;2023-07-20T10:57:23;13.35;;;9.88;;
35530;SDS011;21637;53.352;-6.356;2023-07-20T10:59:53;11.50;;;9.18;;
35530;SDS011;21637;53.352;-6.356;2023-07-20T11:02:43;10.23;;;8.40;;
35530;SDS011;21637;53.352;-6.356;2023-07-20T11:05:32;10.00;;;8.07;;
35530;SDS011;21637;53.352;-6.356;2023-07-20T11:08:14;8.48;;;7.15;;
35530;SDS011;21637;53.352;-6.356;2023-07-20T11:11:24;12.63;;;8.63;;
35530;SDS011;21637;53.352;-6.356;2023-07-20T11:19:18;9.52;;;7.47;;
35530;SDS011;21637;53.352;-6.356;2023-07-20T11:21:52;10.05;;;8.25;;
35530;SDS011;21637;53.352;-6.356;2023-07-20T11:24:22;8.90;;;8.00;;
35530;SDS011;21637;53.352;-6.356;2023-07-20T11:26:49;9.50;;;8.32;;
35530;SDS011;21637;53.352;-6.356;2023-07-20T11:29:16;8.05;;;7.10;;
35530;SDS011;21637;53.352;-6.356;2023-07-20T11:31:44;10.10;;;7.82;;
35530;SDS011;21637;53.352;-6.356;2023-07-20T11:34:14;8.00;;;7.18;;
35530;SDS011;21637;53.352;-6.356;2023-07-20T11:36:46;8.88;;;7.18;;
35530;SDS011;21637;53.352;-6.356;2023-07-20T11:39:16;9.15;;;7.43;;
35530;SDS011;21637;53.352;-6.356;2023-07-20T11:41:49;9.07;;;8.13;;
35530;SDS011;21637;53.352;-6.356;2023-07-20T11:44:16;7.55;;;6.65;;
35530;SDS011;21637;53.352;-6.356;2023-07-20T11:46:43;7.72;;;6.68;;
35530;SDS011;21637;53.352;-6.356;2023-07-20T11:49:09;7.45;;;6.50;;
35530;SDS011;21637;53.352;-6.356;2023-07-20T11:51:36;9.55;;;6.82;;
35530;SDS011;21637;53.352;-6.356;2023-07-20T11:54:03;9.10;;;6.75;;
35530;SDS011;21637;53.352;-6.356;2023-07-20T11:56:31;7.68;;;6.60;;
35530;SDS011;21637;53.352;-6.356;2023-07-20T11:58:57;9.02;;;6.43;;
35530;SDS011;21637;53.352;-6.356;2023-07-20T12:01:28;9.70;;;6.57;;
35530;SDS011;21637;53.352;-6.356;2023-07-20T12:03:56;6.80;;;6.07;;
35530;SDS011;21637;53.352;-6.356;2023-07-20T12:06:24;6.30;;;4.82;;
35530;SDS011;21637;53.352;-6.356;2023-07-20T12:08:54;7.15;;;5.75;;
35530;SDS011;21637;53.352;-6.356;2023-07-20T12:13:57;7.97;;;6.65;;
35530;SDS011;21637;53.352;-6.356;2023-07-20T12:16:26;9.93;;;7.38;;
35530;SDS011;21637;53.352;-6.356;2023-07-20T12:18:59;10.57;;;8.15;;
35530;SDS011;21637;53.352;-6.356;2023-07-20T12:21:26;8.93;;;7.80;;
35530;SDS011;21637;53.352;-6.356;2023-07-20T12:23:52;8.98;;;8.07;;
35530;SDS011;21637;53.352;-6.356;2023-07-20T12:26:18;9.82;;;7.72;;
35530;SDS011;21637;53.352;-6.356;2023-07-20T12:28:47;11.60;;;7.97;;
35530;SDS011;21637;53.352;-6.356;2023-07-20T12:31:14;9.95;;;7.95;;
35530;SDS011;21637;53.352;-6.356;2023-07-20T12:33:39;8.85;;;7.95;;
35530;SDS011;21637;53.352;-6.356;2023-07-20T12:36:05;11.10;;;7.40;;
35530;SDS011;21637;53.352;-6.356;2023-07-20T12:38:31;8.25;;;7.45;;
35530;SDS011;21637;53.352;-6.356;2023-07-20T12:40:57;9.90;;;7.72;;
35530;SDS011;21637;53.352;-6.356;2023-07-20T12:43:23;11.75;;;7.18;;
35530;SDS011;21637;53.352;-6.356;2023-07-20T12:45:49;8.80;;;7.20;;
35530;SDS011;21637;53.352;-6.356;2023-07-20T12:48:15;9.63;;;7.15;;
35530;SDS011;21637;53.352;-6.356;2023-07-20T12:50:41;11.95;;;6.25;;
35530;SDS011;21637;53.352;-6.356;2023-07-20T12:53:07;7.25;;;5.65;;
35530;SDS011;21637;53.352;-6.356;2023-07-20T12:55:33;8.52;;;6.10;;
35530;SDS011;21637;53.352;-6.356;2023-07-20T12:57:59;7.10;;;5.88;;
35530;SDS011;21637;53.352;-6.356;2023-07-20T13:00:25;7.28;;;6.20;;
35530;SDS011;21637;53.352;-6.356;2023-07-20T13:02:51;7.95;;;6.10;;
35530;SDS011;21637;53.352;-6.356;2023-07-20T13:05:16;6.93;;;5.90;;
35530;SDS011;21637;53.352;-6.356;2023-07-20T13:07:42;8.25;;;6.15;;
35530;SDS011;21637;53.352;-6.356;2023-07-20T13:10:09;10.57;;;7.95;;
35530;SDS011;21637;53.352;-6.356;2023-07-20T13:12:36;7.18;;;6.47;;
35530;SDS011;21637;53.352;-6.356;2023-07-20T13:15:03;7.90;;;7.10;;
35530;SDS011;21637;53.352;-6.356;2023-07-20T13:17:33;9.00;;;7.38;;
35530;SDS011;21637;53.352;-6.356;2023-07-20T13:20:00;9.30;;;7.78;;
35530;SDS011;21637;53.352;-6.356;2023-07-20T13:22:26;9.80;;;7.70;;
35530;SDS011;21637;53.352;-6.356;2023-07-20T13:24:52;8.60;;;7.30;;
35530;SDS011;21637;53.352;-6.356;2023-07-20T13:27:18;11.55;;;8.32;;
35530;SDS011;21637;53.352;-6.356;2023-07-20T13:29:45;10.95;;;8.18;;
35530;SDS011;21637;53.352;-6.356;2023-07-20T13:32:14;12.02;;;7.75;;
35530;SDS011;21637;53.352;-6.356;2023-07-20T13:34:41;9.95;;;8.10;;
35530;SDS011;21637;53.352;-6.356;2023-07-20T13:37:07;9.93;;;8.45;;
35530;SDS011;21637;53.352;-6.356;2023-07-20T13:39:33;12.55;;;8.65;;
35530;SDS011;21637;53.352;-6.356;2023-07-20T13:41:59;11.93;;;9.20;;
35530;SDS011;21637;53.352;-6.356;2023-07-20T13:44:27;11.85;;;9.32;;
35530;SDS011;21637;53.352;-6.356;2023-07-20T13:46:53;11.00;;;9.90;;
35530;SDS011;21637;53.352;-6.356;2023-07-20T13:49:18;12.75;;;10.85;;
35530;SDS011;21637;53.352;-6.356;2023-07-20T13:51:44;12.43;;;10.38;;
35530;SDS011;21637;53.352;-6.356;2023-07-20T13:54:10;13.18;;;10.55;;
35530;SDS011;21637;53.352;-6.356;2023-07-20T13:56:36;12.27;;;11.07;;
35530;SDS011;21637;53.352;-6.356;2023-07-20T13:59:03;12.75;;;11.20;;
35530;SDS011;21637;53.352;-6.356;2023-07-20T14:01:28;12.70;;;11.40;;
35530;SDS011;21637;53.352;-6.356;2023-07-20T14:03:55;13.25;;;11.52;;
35530;SDS011;21637;53.352;-6.356;2023-07-20T14:06:21;17.30;;;11.70;;
35530;SDS011;21637;53.352;-6.356;2023-07-20T14:08:47;13.52;;;11.50;;
35530;SDS011;21637;53.352;-6.356;2023-07-20T14:11:14;13.63;;;11.50;;
35530;SDS011;21637;53.352;-6.356;2023-07-20T14:13:40;15.07;;;11.25;;
35530;SDS011;21637;53.352;-6.356;2023-07-20T14:16:06;12.32;;;11.05;;
35530;SDS011;21637;53.352;-6.356;2023-07-20T14:18:33;12.75;;;11.07;;
35530;SDS011;21637;53.352;-6.356;2023-07-20T14:20:58;14.80;;;11.13;;
35530;SDS011;21637;53.352;-6.356;2023-07-20T14:23:25;14.73;;;11.05;;
35530;SDS011;21637;53.352;-6.356;2023-07-20T14:25:50;15.00;;;11.50;;
35530;SDS011;21637;53.352;-6.356;2023-07-20T14:28:16;12.48;;;10.52;;
35530;SDS011;21637;53.352;-6.356;2023-07-20T14:30:42;13.43;;;11.18;;
35530;SDS011;21637;53.352;-6.356;2023-07-20T14:33:07;12.68;;;10.90;;
35530;SDS011;21637;53.352;-6.356;2023-07-20T14:35:33;13.57;;;10.73;;
35530;SDS011;21637;53.352;-6.356;2023-07-20T14:37:59;10.55;;;9.45;;
35530;SDS011;21637;53.352;-6.356;2023-07-20T14:40:26;9.65;;;8.65;;
35530;SDS011;21637;53.352;-6.356;2023-07-20T14:42:52;9.88;;;7.97;;
35530;SDS011;21637;53.352;-6.356;2023-07-20T14:45:17;10.15;;;8.48;;